createdAt,value
2022-09-23T00:02:09.123Z,37.53
2022-09-23T00:04:37.208Z,35.27
2022-09-23T00:07:05.263Z,33.33
2022-09-23T00:09:33.388Z,37.37
2022-09-23T00:12:08.171Z,37.07
2022-09-23T00:14:38.361Z,43.50
2022-09-23T00:17:06.977Z,38.50
2022-09-23T00:19:35.243Z,39.90
2022-09-23T00:22:03.168Z,47.43
2022-09-23T00:24:32.471Z,38.93
2022-09-23T00:27:01.866Z,43.80
2022-09-23T00:29:29.918Z,41.37
2022-09-23T00:31:57.866Z,40.60
2022-09-23T00:34:25.875Z,40.50
2022-09-23T00:36:53.807Z,41.90
2022-09-23T00:39:21.773Z,39.50
2022-09-23T00:41:49.792Z,36.13
2022-09-23T00:44:42.738Z,40.57
2022-09-23T00:47:16.287Z,37.83
2022-09-23T00:49:45.402Z,38.87
2022-09-23T00:52:19.047Z,34.47
2022-09-23T00:54:48.973Z,38.23
2022-09-23T00:57:20.203Z,34.10
2022-09-23T00:59:50.867Z,37.30
2022-09-23T01:02:21.777Z,33.30
2022-09-23T01:04:51.559Z,34.70
2022-09-23T01:07:19.863Z,33.50
2022-09-23T01:09:49.523Z,32.50
2022-09-23T01:12:35.386Z,30.60
2022-09-23T01:15:14.664Z,31.00
2022-09-23T01:17:52.070Z,30.77
2022-09-23T01:21:04.320Z,38.50
2022-09-23T01:24:04.496Z,29.20
2022-09-23T01:26:50.781Z,31.47
2022-09-23T01:29:41.165Z,30.50
2022-09-23T01:32:16.157Z,28.97
2022-09-23T01:34:50.611Z,27.50
2022-09-23T01:37:25.867Z,35.87
2022-09-23T01:40:04.491Z,34.90
2022-09-23T01:42:39.472Z,30.50
2022-09-23T01:45:17.116Z,36.10
2022-09-23T01:47:52.126Z,30.23
2022-09-23T01:50:39.344Z,31.17
2022-09-23T01:53:12.767Z,31.77
2022-09-23T01:55:43.564Z,37.53
2022-09-23T01:58:16.245Z,35.27
2022-09-23T02:00:52.291Z,38.67
2022-09-23T02:03:27.398Z,33.70
2022-09-23T02:06:00.357Z,37.73
2022-09-23T02:08:33.096Z,32.80
2022-09-23T02:11:06.338Z,36.97
2022-09-23T02:13:40.999Z,33.63
2022-09-23T02:16:14.124Z,32.77
2022-09-23T02:18:48.216Z,39.50
2022-09-23T02:21:18.051Z,33.43
2022-09-23T02:23:51.593Z,32.77
2022-09-23T02:26:22.942Z,31.60
2022-09-23T02:28:56.785Z,32.03
2022-09-23T02:31:32.639Z,35.60
2022-09-23T02:34:10.689Z,33.13
2022-09-23T02:36:46.082Z,33.37
2022-09-23T02:39:15.840Z,31.10
2022-09-23T02:41:53.548Z,31.77
2022-09-23T02:44:22.858Z,31.50
2022-09-23T02:46:53.274Z,30.90
2022-09-23T02:49:24.719Z,31.43
2022-09-23T02:51:54.535Z,30.97
2022-09-23T02:54:26.785Z,30.17
2022-09-23T02:56:55.374Z,29.30
2022-09-23T02:59:24.715Z,32.13
2022-09-23T03:02:14.265Z,28.43
2022-09-23T03:04:52.530Z,28.27
2022-09-23T03:07:24.852Z,31.87
2022-09-23T03:10:00.308Z,31.70
2022-09-23T03:12:36.111Z,27.77
2022-09-23T03:15:14.745Z,27.70
2022-09-23T03:17:48.577Z,30.07
2022-09-23T03:20:25.945Z,25.37
2022-09-23T03:22:58.401Z,30.37
2022-09-23T03:25:28.244Z,28.27
2022-09-23T03:27:58.923Z,33.17
2022-09-23T03:30:27.753Z,28.77
2022-09-23T03:33:00.209Z,31.40
2022-09-23T03:35:33.004Z,30.47
2022-09-23T03:38:09.783Z,30.47
2022-09-23T03:40:41.975Z,29.30
2022-09-23T03:43:11.651Z,33.37
2022-09-23T03:45:40.101Z,32.07
2022-09-23T03:48:08.262Z,34.73
2022-09-23T03:50:39.162Z,31.13
2022-09-23T03:53:07.152Z,30.17
2022-09-23T03:55:35.691Z,28.53
2022-09-23T03:58:04.818Z,26.97
2022-09-23T04:00:33.821Z,27.73
2022-09-23T04:03:01.853Z,29.87
2022-09-23T04:05:30.570Z,29.03
2022-09-23T04:07:59.986Z,27.80
2022-09-23T04:10:27.917Z,30.37
2022-09-23T04:12:56.588Z,24.63
2022-09-23T04:15:24.679Z,26.37
2022-09-23T04:17:52.605Z,32.03
2022-09-23T04:20:20.676Z,28.33
2022-09-23T04:22:48.604Z,28.33
2022-09-23T04:25:18.101Z,29.13
2022-09-23T04:27:46.023Z,25.97
2022-09-23T04:30:15.004Z,27.43
2022-09-23T04:32:42.943Z,29.93
2022-09-23T04:35:11.091Z,27.07
2022-09-23T04:37:39.047Z,27.87
2022-09-23T04:40:08.487Z,30.10
2022-09-23T04:42:37.814Z,30.97
2022-09-23T04:45:06.388Z,30.27
2022-09-23T04:47:34.343Z,28.37
2022-09-23T04:50:02.286Z,29.40
2022-09-23T04:52:32.228Z,24.93
2022-09-23T04:55:00.254Z,29.83
2022-09-23T04:57:28.226Z,28.80
2022-09-23T04:59:57.950Z,34.40
2022-09-23T05:02:25.958Z,28.90
2022-09-23T05:04:54.143Z,30.70
2022-09-23T05:07:22.161Z,34.30
2022-09-23T05:09:50.098Z,48.67
2022-09-23T05:12:18.214Z,38.43
2022-09-23T05:14:46.186Z,42.33
2022-09-23T05:17:15.771Z,47.17
2022-09-23T05:19:43.702Z,34.57
2022-09-23T05:22:11.652Z,28.37
2022-09-23T05:24:39.642Z,27.20
2022-09-23T05:27:08.122Z,28.77
2022-09-23T05:29:36.167Z,27.67
2022-09-23T05:32:04.356Z,29.37
2022-09-23T05:34:33.684Z,28.57
2022-09-23T05:37:01.626Z,29.93
2022-09-23T05:39:29.653Z,29.30
2022-09-23T05:42:00.092Z,26.43
2022-09-23T05:44:28.162Z,25.87
2022-09-23T05:46:56.458Z,26.90
2022-09-23T05:49:42.500Z,26.00
2022-09-23T05:52:14.129Z,27.37
2022-09-23T05:54:42.087Z,23.33
2022-09-23T05:57:10.166Z,26.97
2022-09-23T05:59:38.156Z,26.87
2022-09-23T06:02:08.266Z,30.10
2022-09-23T06:05:05.919Z,30.37
2022-09-23T06:07:45.244Z,32.87
2022-09-23T06:10:13.453Z,28.93
2022-09-23T06:12:42.486Z,28.37
2022-09-23T06:15:13.179Z,31.57
2022-09-23T06:17:41.135Z,35.00
2022-09-23T06:20:10.035Z,30.43
2022-09-23T06:22:40.247Z,26.13
2022-09-23T06:25:08.908Z,32.50
2022-09-23T06:27:36.974Z,32.90
2022-09-23T06:30:05.375Z,32.40
2022-09-23T06:32:33.382Z,31.60
2022-09-23T06:35:01.375Z,34.93
2022-09-23T06:37:30.623Z,32.13
2022-09-23T06:40:00.037Z,34.17
2022-09-23T06:42:28.139Z,30.13
2022-09-23T06:44:56.068Z,28.00
2022-09-23T06:47:24.040Z,35.63
2022-09-23T06:49:52.152Z,32.87
2022-09-23T06:52:26.276Z,30.43
2022-09-23T06:54:56.859Z,31.70
2022-09-23T06:57:26.196Z,25.50
2022-09-23T06:59:54.147Z,25.00
2022-09-23T07:02:22.292Z,21.87
2022-09-23T07:04:51.291Z,24.47
2022-09-23T07:07:19.299Z,28.23
2022-09-23T07:09:47.829Z,33.30
2022-09-23T07:12:15.846Z,31.37
2022-09-23T07:14:46.135Z,29.70
2022-09-23T07:17:14.492Z,32.63
2022-09-23T07:19:42.528Z,28.73
2022-09-23T07:22:10.470Z,29.10
2022-09-23T07:24:38.517Z,31.53
2022-09-23T07:27:34.999Z,27.20
2022-09-23T07:30:04.988Z,21.60
2022-09-23T07:32:43.873Z,24.43
2022-09-23T07:35:20.643Z,25.73
2022-09-23T07:37:54.919Z,25.57
2022-09-23T07:40:27.017Z,26.40
2022-09-23T07:42:55.474Z,24.37
2022-09-23T07:45:27.431Z,21.47
2022-09-23T07:47:56.530Z,21.57
2022-09-23T07:50:24.536Z,22.30
2022-09-23T07:52:53.254Z,21.20
2022-09-23T07:55:21.851Z,20.67
2022-09-23T07:57:49.773Z,17.63
2022-09-23T08:00:18.554Z,19.67
2022-09-23T08:02:53.130Z,16.63
2022-09-23T08:05:21.910Z,13.63
2022-09-23T08:07:49.882Z,21.00
2022-09-23T08:10:19.099Z,15.23
2022-09-23T08:12:47.108Z,19.10
2022-09-23T08:15:15.223Z,16.83
2022-09-23T08:17:43.370Z,17.60
2022-09-23T08:20:34.035Z,15.87
2022-09-23T08:23:01.971Z,17.33
2022-09-23T08:25:33.023Z,27.13
2022-09-23T08:28:02.115Z,28.27
2022-09-23T08:30:30.102Z,24.67
2022-09-23T08:32:58.203Z,29.95
2022-09-23T08:35:27.516Z,26.65
2022-09-23T08:37:55.464Z,25.73
2022-09-23T08:40:23.733Z,28.48
2022-09-23T08:42:51.791Z,16.88
2022-09-23T08:45:24.376Z,13.15
2022-09-23T08:47:58.325Z,12.00
2022-09-23T08:50:31.837Z,11.73
2022-09-23T08:53:02.732Z,12.20
2022-09-23T08:55:35.617Z,12.93
2022-09-23T08:58:26.198Z,14.45
2022-09-23T09:01:07.961Z,14.40
2022-09-23T09:03:41.107Z,11.02
2022-09-23T09:06:17.854Z,15.07
2022-09-23T09:08:55.640Z,14.50
2022-09-23T09:11:28.908Z,10.63
2022-09-23T09:14:06.648Z,12.10
2022-09-23T09:17:00.737Z,15.93
2022-09-23T09:19:47.323Z,21.98
2022-09-23T09:22:21.905Z,24.17
2022-09-23T09:24:50.704Z,26.57
2022-09-23T09:27:19.057Z,25.57
2022-09-23T09:29:50.252Z,19.40
2022-09-23T09:32:29.742Z,18.07
2022-09-23T09:35:09.335Z,20.20
2022-09-23T09:37:47.031Z,19.80
2022-09-23T09:40:17.363Z,17.33
2022-09-23T09:42:49.565Z,19.40
2022-09-23T09:45:27.141Z,24.33
2022-09-23T09:48:02.985Z,21.48
2022-09-23T09:50:47.212Z,17.33
2022-09-23T09:53:24.040Z,18.37
2022-09-23T09:56:05.053Z,13.90
2022-09-23T09:58:43.944Z,14.52
2022-09-23T10:01:23.419Z,14.15
2022-09-23T10:03:56.995Z,14.73
2022-09-23T10:06:28.929Z,15.30
2022-09-23T10:09:17.052Z,13.80
2022-09-23T10:12:04.584Z,15.40
2022-09-23T10:14:32.969Z,14.43
2022-09-23T10:17:06.256Z,13.65
2022-09-23T10:19:37.154Z,14.02
2022-09-23T10:22:11.038Z,12.25
2022-09-23T10:24:48.264Z,10.38
2022-09-23T10:27:17.137Z,16.10
2022-09-23T10:29:51.844Z,11.52
2022-09-23T10:32:26.607Z,12.15
2022-09-23T10:34:58.025Z,12.90
2022-09-23T10:37:35.555Z,16.63
2022-09-23T10:40:36.133Z,16.60
2022-09-23T10:43:38.248Z,14.60
2022-09-23T10:46:26.963Z,15.15
2022-09-23T10:49:12.318Z,14.93
2022-09-23T10:51:53.571Z,18.45
2022-09-23T10:54:32.369Z,14.63
2022-09-23T10:57:30.248Z,17.17
2022-09-23T11:00:03.538Z,16.00
2022-09-23T11:03:11.070Z,17.23
2022-09-23T11:05:46.303Z,11.48
2022-09-23T11:08:36.479Z,12.68
2022-09-23T11:11:21.849Z,10.30
2022-09-23T11:14:17.168Z,9.40
2022-09-23T11:16:58.199Z,10.38
2022-09-23T11:19:46.694Z,8.32
2022-09-23T11:22:37.503Z,7.53
2022-09-23T11:25:30.253Z,10.13
2022-09-23T11:28:11.605Z,8.13
2022-09-23T11:30:50.402Z,8.60
2022-09-23T11:33:38.516Z,12.45
2022-09-23T11:36:09.235Z,9.35
2022-09-23T11:38:41.353Z,6.50
2022-09-23T11:41:19.073Z,7.57
2022-09-23T11:43:52.410Z,3.58
2022-09-23T11:46:31.428Z,10.23
2022-09-23T11:49:06.380Z,5.55
2022-09-23T11:51:43.388Z,4.22
2022-09-23T11:54:20.891Z,14.07
2022-09-23T11:56:53.020Z,6.13
2022-09-23T11:59:39.482Z,6.07
2022-09-23T12:02:22.227Z,13.88
2022-09-23T12:05:01.254Z,7.07
2022-09-23T12:07:39.358Z,5.90
2022-09-23T12:10:10.135Z,7.15
2022-09-23T12:12:47.768Z,5.68
2022-09-23T12:15:27.916Z,8.88
2022-09-23T12:18:28.946Z,6.00
2022-09-23T12:24:24.700Z,7.05
2022-09-23T12:26:56.227Z,9.65
2022-09-23T12:29:26.764Z,4.10
2022-09-23T12:31:55.629Z,8.05
2022-09-23T12:34:30.761Z,7.85
2022-09-23T12:37:04.287Z,7.70
2022-09-23T12:39:34.536Z,4.97
2022-09-23T12:42:05.266Z,4.90
2022-09-23T12:44:37.663Z,6.47
2022-09-23T12:47:37.867Z,7.82
2022-09-23T12:50:38.884Z,7.85
2022-09-23T12:53:51.747Z,5.13
2022-09-23T12:56:24.000Z,6.93
2022-09-23T12:59:03.452Z,8.03
2022-09-23T13:01:38.647Z,8.93
2022-09-23T13:04:24.199Z,8.00
2022-09-23T13:06:59.137Z,8.15
2022-09-23T13:09:30.129Z,9.70
2022-09-23T13:12:02.138Z,8.23
2022-09-23T13:14:32.645Z,5.93
2022-09-23T13:17:01.181Z,7.80
2022-09-23T13:19:58.471Z,7.00
2022-09-23T13:22:42.626Z,12.65
2022-09-23T13:25:20.660Z,7.10
2022-09-23T13:27:53.814Z,10.05
2022-09-23T13:30:26.394Z,10.80
2022-09-23T13:33:04.765Z,12.27
2022-09-23T13:35:37.369Z,5.80
2022-09-23T13:38:12.694Z,5.78
2022-09-23T13:40:42.528Z,8.30
2022-09-23T13:43:20.226Z,4.88
2022-09-23T13:45:48.442Z,7.55
2022-09-23T13:48:16.990Z,6.35
2022-09-23T13:50:48.854Z,7.72
2022-09-23T13:53:22.985Z,6.88
2022-09-23T13:56:01.487Z,7.00
2022-09-23T13:58:32.559Z,8.60
2022-09-23T14:01:01.215Z,9.85
2022-09-23T14:03:36.166Z,8.20
2022-09-23T14:06:08.613Z,7.63
2022-09-23T14:08:39.649Z,6.95
2022-09-23T14:11:07.658Z,9.93
2022-09-23T14:13:43.663Z,7.73
2022-09-23T14:16:15.088Z,8.40
2022-09-23T14:18:46.656Z,9.70
2022-09-23T14:21:35.045Z,8.37
2022-09-23T14:24:14.693Z,9.83
2022-09-23T14:26:45.796Z,17.27
2022-09-23T14:29:18.646Z,13.57
2022-09-23T14:31:56.737Z,12.23
2022-09-23T14:34:46.525Z,9.32
2022-09-23T14:37:40.001Z,10.00
2022-09-23T14:40:14.719Z,9.95
2022-09-23T14:42:46.403Z,10.87
2022-09-23T14:45:19.600Z,9.80
2022-09-23T14:47:51.008Z,11.05
2022-09-23T14:50:39.683Z,10.50
2022-09-23T14:53:32.019Z,9.63
2022-09-23T14:56:14.624Z,21.43
2022-09-23T14:58:50.990Z,15.13
2022-09-23T15:01:38.648Z,13.80
2022-09-23T15:04:16.192Z,15.47
2022-09-23T15:06:48.929Z,19.10
2022-09-23T15:09:23.644Z,14.90
2022-09-23T15:11:58.232Z,10.20
2022-09-23T15:14:37.803Z,12.25
2022-09-23T15:17:15.767Z,11.90
2022-09-23T15:19:43.875Z,10.18
2022-09-23T15:22:13.000Z,11.80
2022-09-23T15:24:46.646Z,15.13
2022-09-23T15:27:32.331Z,12.33
2022-09-23T15:30:17.255Z,14.97
2022-09-23T15:32:47.606Z,11.93
2022-09-23T15:35:16.775Z,13.02
2022-09-23T15:37:44.830Z,10.73
2022-09-23T15:40:19.610Z,16.55
2022-09-23T15:42:52.590Z,15.93
2022-09-23T15:45:22.412Z,12.48
2022-09-23T15:47:52.365Z,12.10
2022-09-23T15:50:20.802Z,10.57
2022-09-23T15:52:50.291Z,11.95
2022-09-23T15:55:21.872Z,14.70
2022-09-23T15:57:50.415Z,12.18
2022-09-23T16:00:18.624Z,12.50
2022-09-23T16:02:48.930Z,9.43
2022-09-23T16:05:26.594Z,10.97
2022-09-23T16:07:54.589Z,16.47
2022-09-23T16:10:23.712Z,20.00
2022-09-23T16:12:54.899Z,18.70
2022-09-23T16:15:24.676Z,18.48
2022-09-23T16:17:52.841Z,18.48
2022-09-23T16:20:22.926Z,26.97
2022-09-23T16:22:55.603Z,28.17
2022-09-23T16:25:28.347Z,40.70
2022-09-23T16:27:56.512Z,35.27
2022-09-23T16:30:25.081Z,27.48
2022-09-23T16:32:53.063Z,30.93
2022-09-23T16:35:23.574Z,31.30
2022-09-23T16:37:52.778Z,28.73
2022-09-23T16:40:23.110Z,27.03
2022-09-23T16:42:55.003Z,27.87
2022-09-23T16:45:23.654Z,27.33
2022-09-23T16:47:52.745Z,32.33
2022-09-23T16:50:23.778Z,36.23
2022-09-23T16:52:56.168Z,37.57
2022-09-23T16:55:25.789Z,40.30
2022-09-23T16:57:54.625Z,29.40
2022-09-23T17:00:45.596Z,23.03
2022-09-23T17:03:31.661Z,26.87
2022-09-23T17:06:04.649Z,25.63
2022-09-23T17:08:35.854Z,24.53
2022-09-23T17:11:03.840Z,26.37
2022-09-23T17:13:32.511Z,28.03
2022-09-23T17:16:00.804Z,23.27
2022-09-23T17:18:29.726Z,26.60
2022-09-23T17:21:00.405Z,28.53
2022-09-23T17:23:29.646Z,29.30
2022-09-23T17:25:58.065Z,31.23
2022-09-23T17:28:26.573Z,23.57
2022-09-23T17:30:58.746Z,23.10
2022-09-23T17:33:26.998Z,32.83
2022-09-23T17:35:54.994Z,26.98
2022-09-23T17:38:28.913Z,28.98
2022-09-23T17:40:59.129Z,25.73
2022-09-23T17:43:27.701Z,27.77
2022-09-23T17:45:57.296Z,26.23
2022-09-23T17:48:26.298Z,24.37
2022-09-23T17:50:57.933Z,26.30
2022-09-23T17:53:27.256Z,25.60
2022-09-23T17:55:59.312Z,27.87
2022-09-23T17:58:28.479Z,27.20
2022-09-23T18:00:57.356Z,30.30
2022-09-23T18:03:26.844Z,24.73
2022-09-23T18:05:54.836Z,20.97
2022-09-23T18:08:22.815Z,24.80
2022-09-23T18:10:52.141Z,32.30
2022-09-23T18:13:20.081Z,25.63
2022-09-23T18:15:48.055Z,23.40
2022-09-23T18:18:15.996Z,32.17
2022-09-23T18:20:44.128Z,25.30
2022-09-23T18:23:12.308Z,27.00
2022-09-23T18:25:40.338Z,28.83
2022-09-23T18:28:09.703Z,31.00
2022-09-23T18:30:37.672Z,26.17
2022-09-23T18:33:05.674Z,30.80
2022-09-23T18:35:33.653Z,35.80
2022-09-23T18:38:01.610Z,34.30
2022-09-23T18:40:29.640Z,37.93
2022-09-23T18:42:57.627Z,35.27
2022-09-23T18:45:27.023Z,34.03
2022-09-23T18:48:12.739Z,26.83
2022-09-23T18:50:40.892Z,31.80
2022-09-23T18:53:09.286Z,29.37
2022-09-23T18:55:37.815Z,41.07
2022-09-23T18:58:07.406Z,35.17
2022-09-23T19:00:36.983Z,41.80
2022-09-23T19:03:05.038Z,46.90
2022-09-23T19:05:35.202Z,52.03
2022-09-23T19:08:03.616Z,48.87
2022-09-23T19:10:31.633Z,51.50
2022-09-23T19:12:59.575Z,47.33
2022-09-23T19:15:27.883Z,44.03
2022-09-23T19:17:57.213Z,52.10
2022-09-23T19:20:25.238Z,52.93
2022-09-23T19:22:53.225Z,56.90
2022-09-23T19:25:21.205Z,50.60
2022-09-23T19:27:49.142Z,55.40
2022-09-23T19:30:19.164Z,49.17
2022-09-23T19:32:48.977Z,51.93
2022-09-23T19:35:18.382Z,40.03
2022-09-23T19:37:49.279Z,47.57
2022-09-23T19:40:17.430Z,44.87
2022-09-23T19:42:45.415Z,39.83
2022-09-23T19:45:13.347Z,38.63
2022-09-23T19:47:41.306Z,36.50
2022-09-23T19:50:09.752Z,36.00
2022-09-23T19:52:39.067Z,36.30
2022-09-23T19:55:08.259Z,32.20
2022-09-23T19:57:36.200Z,31.43
2022-09-23T20:00:05.372Z,33.83
2022-09-23T20:02:33.402Z,33.03
2022-09-23T20:05:01.427Z,41.40
2022-09-23T20:07:29.451Z,38.37
2022-09-23T20:09:58.739Z,38.53
2022-09-23T20:12:26.691Z,39.90
2022-09-23T20:14:54.615Z,40.67
2022-09-23T20:17:22.584Z,45.53
2022-09-23T20:19:50.514Z,44.10
2022-09-23T20:22:32.402Z,38.27
2022-09-23T20:25:03.040Z,37.97
2022-09-23T20:27:31.585Z,32.77
2022-09-23T20:30:00.473Z,27.53
2022-09-23T20:32:29.062Z,27.50
2022-09-23T20:34:57.218Z,32.73
2022-09-23T20:37:25.866Z,29.40
2022-09-23T20:39:54.214Z,26.27
2022-09-23T20:42:23.536Z,27.63
2022-09-23T20:44:51.498Z,29.10
2022-09-23T20:47:19.729Z,29.33
2022-09-23T20:49:48.929Z,25.57
2022-09-23T20:52:20.301Z,17.57
2022-09-23T20:54:50.471Z,16.93
2022-09-23T20:57:20.540Z,19.23
2022-09-23T20:59:49.912Z,14.93
2022-09-23T21:02:17.933Z,20.27
2022-09-23T21:04:45.986Z,20.33
2022-09-23T21:07:13.977Z,36.10
2022-09-23T21:09:41.946Z,47.00
2022-09-23T21:12:09.930Z,57.53
2022-09-23T21:14:37.868Z,46.80
2022-09-23T21:17:07.215Z,49.10
2022-09-23T21:19:37.501Z,54.13
2022-09-23T21:22:05.414Z,54.43
2022-09-23T21:25:03.889Z,48.17
2022-09-23T21:27:22.801Z,57.23
2022-09-23T21:29:50.772Z,60.93
2022-09-23T21:32:20.052Z,67.63
2022-09-23T21:34:48.321Z,59.10
2022-09-23T21:37:16.306Z,61.00
2022-09-23T21:40:04.922Z,65.30
2022-09-23T21:42:32.972Z,68.90
2022-09-23T21:45:01.748Z,50.40
2022-09-23T21:47:32.370Z,45.17
2022-09-23T21:50:01.383Z,41.37
2022-09-23T21:52:29.406Z,42.37
2022-09-23T21:54:57.349Z,39.03
2022-09-23T21:57:25.908Z,37.87
2022-09-23T21:59:54.192Z,37.83
2022-09-23T22:02:23.406Z,35.90
2022-09-23T22:04:52.675Z,32.20
2022-09-23T22:07:21.048Z,37.43
2022-09-23T22:09:49.012Z,56.63
2022-09-23T22:12:16.975Z,54.00
2022-09-23T22:14:47.234Z,56.33
2022-09-23T22:17:16.480Z,58.47
2022-09-23T22:19:47.247Z,59.53
2022-09-23T22:22:18.073Z,51.87
2022-09-23T22:24:47.519Z,54.20
2022-09-23T22:27:18.084Z,59.53
2022-09-23T22:30:03.379Z,51.97
2022-09-23T22:32:46.148Z,50.00
2022-09-23T22:35:17.781Z,44.23
2022-09-23T22:37:47.291Z,42.93
2022-09-23T22:40:16.699Z,35.80
2022-09-23T22:42:45.382Z,34.80
2022-09-23T22:45:13.983Z,37.33
2022-09-23T22:47:45.426Z,30.80
2022-09-23T22:50:15.113Z,30.73
2022-09-23T22:52:43.717Z,27.33
2022-09-23T22:55:13.634Z,26.87
2022-09-23T22:57:41.656Z,23.80
2022-09-23T23:00:12.225Z,24.73
2022-09-23T23:02:41.858Z,23.80
2022-09-23T23:05:10.238Z,27.27
2022-09-23T23:07:38.324Z,29.17
2022-09-23T23:10:08.819Z,24.80
2022-09-23T23:12:39.573Z,25.27
2022-09-23T23:15:09.286Z,23.97
2022-09-23T23:17:38.246Z,30.93
2022-09-23T23:20:07.154Z,25.63
2022-09-23T23:22:35.113Z,29.23
2022-09-23T23:25:03.103Z,34.47
2022-09-23T23:27:31.110Z,37.43
2022-09-23T23:30:00.421Z,40.10
2022-09-23T23:32:28.532Z,40.67
2022-09-23T23:34:56.500Z,51.70
2022-09-23T23:37:24.489Z,50.23
2022-09-23T23:39:52.421Z,53.73
2022-09-23T23:42:20.371Z,49.87
2022-09-23T23:44:48.308Z,41.10
2022-09-23T23:47:17.624Z,52.23
2022-09-23T23:49:45.575Z,45.10
2022-09-23T23:52:13.552Z,47.70
2022-09-23T23:54:41.551Z,48.63
2022-09-23T23:57:09.516Z,46.73
2022-09-23T23:59:37.691Z,51.73
